Time;durP1;ratioP1;P1;durP2;ratioP2;P2;SDS_P1;SDS_P2;PMS_P1;PMS_P2;Temp;Humidity;BMP_temperature;BMP_pressure;BME280_temperature;BME280_humidity;BME280_pressure;Samples;Min_cycle;Max_cycle;Signal;HPM_P1;HPM_P2
2022/08/29 00:01:03;;;;;;;11.70;3.58;;;;;;;13.24;85.47;102020.09;5045900;28;20031;-74
2022/08/29 00:03:28;;;;;;;11.27;3.55;;;;;;;13.21;85.67;102014.03;5049595;28;20123;-74
2022/08/29 00:05:54;;;;;;;9.95;3.33;;;;;;;13.23;85.92;102014.78;5044417;28;20116;-74
2022/08/29 00:08:19;;;;;;;12.30;3.88;;;;;;;13.20;86.22;102018.56;5040385;28;20043;-74
2022/08/29 00:10:45;;;;;;;9.82;3.35;;;;;;;13.20;86.47;102025.78;5046987;28;20460;-74
2022/08/29 00:13:13;;;;;;;11.65;3.85;;;;;;;13.19;86.71;102021.34;5040078;28;20139;-74
2022/08/29 00:15:39;;;;;;;11.70;3.95;;;;;;;13.20;86.64;102025.78;5048437;28;20057;-74
2022/08/29 00:18:06;;;;;;;13.00;4.78;;;;;;;13.19;86.41;102019.53;5050610;28;20427;-74
2022/08/29 00:20:33;;;;;;;16.05;4.60;;;;;;;13.19;86.71;102018.66;5048788;28;20060;-74
2022/08/29 00:22:58;;;;;;;14.55;4.85;;;;;;;13.21;86.65;102011.34;5048780;28;20025;-74
2022/08/29 00:25:24;;;;;;;18.42;5.72;;;;;;;13.20;86.98;102012.31;5036854;28;20457;-74
2022/08/29 00:27:50;;;;;;;16.70;4.75;;;;;;;13.21;86.91;102011.34;5049614;28;20037;-74
2022/08/29 00:30:17;;;;;;;17.13;5.60;;;;;;;13.23;86.88;102014.78;5041163;28;20377;-74
2022/08/29 00:32:42;;;;;;;16.42;5.30;;;;;;;13.25;86.87;102007.44;5040630;28;20082;-74
2022/08/29 00:35:12;;;;;;;16.85;6.18;;;;;;;13.20;86.54;102012.31;5031920;28;20045;-74
2022/08/29 00:37:39;;;;;;;16.77;5.88;;;;;;;13.20;86.47;102017.69;5042950;28;20492;-74
2022/08/29 00:40:07;;;;;;;19.95;6.22;;;;;;;13.14;86.98;102015.41;5041291;28;20029;-74
2022/08/29 00:42:34;;;;;;;17.75;5.82;;;;;;;13.11;86.90;102011.06;5039063;28;20082;-74
2022/08/29 00:45:00;;;;;;;18.90;6.70;;;;;;;13.12;86.92;102018.22;5043757;28;20074;-74
2022/08/29 00:47:31;;;;;;;15.13;5.60;;;;;;;13.09;86.91;102021.13;5038042;28;20119;-74
2022/08/29 00:49:57;;;;;;;15.57;5.05;;;;;;;13.05;86.50;102016.88;5046800;28;20029;-74
2022/08/29 00:52:45;;;;;;;18.05;5.53;;;;;;;13.02;86.17;102017.09;5043007;28;20064;-74
2022/08/29 00:55:14;;;;;;;18.05;5.50;;;;;;;12.96;86.68;102018.34;5031736;28;20499;-74
2022/08/29 00:57:42;;;;;;;17.00;6.00;;;;;;;12.93;86.32;102018.53;5046635;28;20040;-74
2022/08/29 01:00:09;;;;;;;16.15;5.32;;;;;;;12.88;86.53;102032.31;5054652;28;20028;-74
2022/08/29 01:02:36;;;;;;;18.45;6.30;;;;;;;12.83;86.56;102023.66;5043500;28;20044;-74
2022/08/29 01:05:01;;;;;;;15.75;5.75;;;;;;;12.81;86.79;102020.19;5036584;28;20108;-74
2022/08/29 01:07:27;;;;;;;19.35;7.55;;;;;;;12.82;86.75;102023.75;5033951;28;20124;-74
2022/08/29 01:09:53;;;;;;;20.35;7.63;;;;;;;12.78;87.16;102025.75;5044057;28;20033;-74
2022/08/29 01:12:22;;;;;;;21.35;7.88;;;;;;;12.74;86.99;102035.03;5050494;28;20036;-74
2022/08/29 01:14:54;;;;;;;18.13;7.87;;;;;;;12.74;87.21;102035.91;5044961;28;20388;-74
2022/08/29 01:17:22;;;;;;;21.85;7.22;;;;;;;12.69;87.48;102034.44;5044794;28;20032;-74
2022/08/29 01:19:56;;;;;;;19.23;7.57;;;;;;;12.67;87.62;102034.56;5048546;28;20041;-74
2022/08/29 01:22:34;;;;;;;19.42;7.05;;;;;;;12.66;87.62;102037.34;5049964;28;20031;-74
2022/08/29 01:25:01;;;;;;;18.35;6.90;;;;;;;12.59;87.57;102029.66;5046375;28;20041;-74
2022/08/29 01:27:31;;;;;;;16.65;6.03;;;;;;;12.55;87.66;102036.19;5034012;28;20040;-74
2022/08/29 01:29:57;;;;;;;18.40;5.90;;;;;;;12.53;87.75;102030.03;5046720;28;20028;-74
2022/08/29 01:32:24;;;;;;;16.88;5.63;;;;;;;12.49;87.52;102025.78;5046842;28;20457;-74
2022/08/29 01:34:50;;;;;;;18.02;6.53;;;;;;;12.46;87.25;102028.69;5043879;28;20060;-74
2022/08/29 01:37:16;;;;;;;15.35;5.68;;;;;;;12.44;87.16;102025.22;5044144;28;20029;-74
2022/08/29 01:39:43;;;;;;;18.23;6.18;;;;;;;12.40;87.58;102011.06;5029286;28;20112;-74
2022/08/29 01:42:12;;;;;;;18.60;6.65;;;;;;;12.40;87.67;102015.56;5041404;28;20024;-74
2022/08/29 01:44:38;;;;;;;20.00;7.20;;;;;;;12.40;87.90;102013.75;5039465;28;20041;-74
2022/08/29 01:47:05;;;;;;;18.77;7.43;;;;;;;12.39;87.99;102021.94;5046039;28;20283;-74
2022/08/29 01:49:33;;;;;;;22.88;8.32;;;;;;;12.34;87.89;102016.84;5036318;28;20053;-74
2022/08/29 01:51:59;;;;;;;21.23;7.85;;;;;;;12.34;87.85;102021.34;5044773;28;20059;-74
2022/08/29 01:54:24;;;;;;;19.00;7.10;;;;;;;12.31;88.48;102014.31;5046451;28;20041;-74
2022/08/29 01:56:51;;;;;;;19.05;6.90;;;;;;;12.31;88.34;102021.53;5035761;28;20485;-74
2022/08/29 01:59:20;;;;;;;19.75;7.20;;;;;;;12.27;88.27;102025.38;5042975;28;20110;-73
2022/08/29 02:01:54;;;;;;;18.38;7.18;;;;;;;12.27;87.99;102023.56;5048399;28;20559;-74
2022/08/29 02:04:19;;;;;;;20.20;7.25;;;;;;;12.26;87.97;102023.66;5052242;28;20119;-74
2022/08/29 02:06:45;;;;;;;19.60;8.38;;;;;;;12.24;87.79;102024.63;5049465;28;20100;-74
2022/08/29 02:09:11;;;;;;;21.83;8.27;;;;;;;12.22;87.73;102028.38;5049800;28;20026;-74
2022/08/29 02:11:37;;;;;;;22.77;9.23;;;;;;;12.22;87.82;102020.28;5046182;28;20111;-74
2022/08/29 02:14:03;;;;;;;23.33;8.38;;;;;;;12.18;87.79;102021.44;5048175;28;20453;-74
2022/08/29 02:16:30;;;;;;;24.30;9.55;;;;;;;12.13;88.00;102013.63;5052522;28;20061;-74
2022/08/29 02:18:56;;;;;;;24.25;8.75;;;;;;;12.13;88.33;102024.41;5049446;28;20472;-74
2022/08/29 02:21:25;;;;;;;22.45;8.55;;;;;;;12.11;88.32;102022.75;5048563;28;20111;-74
2022/08/29 02:23:51;;;;;;;19.88;8.77;;;;;;;12.09;88.31;102025.53;5052610;28;20037;-74
2022/08/29 02:26:19;;;;;;;24.75;9.02;;;;;;;12.06;88.48;102029.31;5047205;28;20063;-74
2022/08/29 02:28:44;;;;;;;19.05;7.68;;;;;;;12.05;88.65;102027.56;5036457;28;20029;-74
2022/08/29 02:31:10;;;;;;;20.65;7.82;;;;;;;12.06;88.75;102033.81;5043299;28;20468;-73
2022/08/29 02:33:36;;;;;;;20.95;7.15;;;;;;;12.05;88.62;102040.19;5049054;28;20047;-74
2022/08/29 02:36:02;;;;;;;20.08;7.35;;;;;;;12.04;88.86;102041.16;5050373;28;20404;-74
2022/08/29 02:38:28;;;;;;;19.63;7.93;;;;;;;12.05;88.84;102040.19;5033603;28;20065;-74
2022/08/29 02:40:55;;;;;;;20.55;7.80;;;;;;;12.03;88.98;102039.41;5041544;28;20079;-75
2022/08/29 02:43:20;;;;;;;21.17;7.75;;;;;;;12.02;88.59;102046.63;5053527;28;20056;-74
2022/08/29 02:45:46;;;;;;;19.50;7.22;;;;;;;11.99;88.63;102043.22;5048236;28;20045;-74
2022/08/29 02:48:13;;;;;;;17.95;6.70;;;;;;;11.96;89.00;102036.22;5050183;28;20032;-74
2022/08/29 02:50:44;;;;;;;23.25;7.75;;;;;;;11.94;88.85;102040.81;5042708;28;20147;-74
2022/08/29 02:53:10;;;;;;;17.35;6.22;;;;;;;11.94;89.11;102043.50;5053495;28;20025;-74
2022/08/29 02:55:37;;;;;;;16.98;6.95;;;;;;;11.92;89.09;102044.53;5049522;28;20033;-74
2022/08/29 02:58:02;;;;;;;18.63;6.78;;;;;;;11.89;89.11;102046.47;5040085;28;20025;-74
2022/08/29 03:00:28;;;;;;;19.55;6.68;;;;;;;11.89;89.35;102045.59;5047352;28;20465;-74
2022/08/29 03:02:54;;;;;;;18.60;6.32;;;;;;;11.88;89.24;102041.16;5048894;28;20039;-74
2022/08/29 03:05:22;;;;;;;18.75;7.43;;;;;;;11.85;89.22;102038.66;5051973;28;20063;-74
2022/08/29 03:07:47;;;;;;;17.63;6.25;;;;;;;11.84;89.32;102047.69;5051966;28;20028;-74
2022/08/29 03:10:13;;;;;;;20.10;6.68;;;;;;;11.80;89.34;102038.94;5043274;28;20033;-74
2022/08/29 03:12:38;;;;;;;22.45;7.32;;;;;;;11.80;89.19;102040.75;5039159;28;20512;-74
2022/08/29 03:15:06;;;;;;;17.70;6.85;;;;;;;11.78;89.08;102035.44;5035449;28;20053;-74
2022/08/29 03:17:31;;;;;;;18.38;7.00;;;;;;;11.77;89.13;102041.81;5052867;28;20031;-74
2022/08/29 03:19:57;;;;;;;20.45;6.57;;;;;;;11.75;89.15;102032.09;5039884;28;20516;-74
2022/08/29 03:22:23;;;;;;;16.92;7.28;;;;;;;11.71;88.80;102034.06;5049851;28;20041;-74
2022/08/29 03:24:48;;;;;;;18.95;6.53;;;;;;;11.69;89.09;102031.47;5053365;28;20021;-74
2022/08/29 03:27:13;;;;;;;19.02;6.45;;;;;;;11.71;89.33;102028.69;5051252;28;20029;-74
2022/08/29 03:29:38;;;;;;;18.00;6.50;;;;;;;11.70;89.25;102024.28;5036874;28;20029;-74
2022/08/29 03:32:04;;;;;;;20.83;7.45;;;;;;;11.68;89.58;102018.09;5040513;28;20074;-74
2022/08/29 03:34:30;;;;;;;18.05;6.65;;;;;;;11.68;89.83;102020.78;5044161;28;20829;-74
2022/08/29 03:36:56;;;;;;;19.60;7.07;;;;;;;11.66;89.71;102025.41;5052016;28;20326;-74
2022/08/29 03:39:22;;;;;;;20.90;6.57;;;;;;;11.64;89.65;102016.53;5051262;28;20032;-74
2022/08/29 03:41:47;;;;;;;19.45;6.72;;;;;;;11.62;89.84;102018.47;5047459;28;20122;-74
2022/08/29 03:44:13;;;;;;;18.48;6.60;;;;;;;11.59;89.83;102005.19;5042982;28;20477;-74
2022/08/29 03:46:39;;;;;;;20.92;6.80;;;;;;;11.58;90.06;101996.25;5045931;28;20029;-74
2022/08/29 03:49:07;;;;;;;20.30;6.90;;;;;;;11.59;90.35;101997.13;5045998;28;20033;-74
2022/08/29 03:51:34;;;;;;;18.58;6.95;;;;;;;11.59;90.00;101992.59;5050487;28;20395;-74
2022/08/29 03:53:59;;;;;;;21.13;6.90;;;;;;;11.54;90.22;101987.47;5047200;28;20032;-74
2022/08/29 03:56:25;;;;;;;20.40;6.80;;;;;;;11.58;90.25;101993.56;5042367;28;20425;-74
2022/08/29 03:58:50;;;;;;;17.67;6.25;;;;;;;11.57;90.12;101990.94;5041696;28;20039;-74
2022/08/29 04:01:17;;;;;;;17.35;6.38;;;;;;;11.56;90.36;101994.59;5049894;28;20434;-74
2022/08/29 04:03:43;;;;;;;18.30;6.20;;;;;;;11.56;90.00;101986.53;5047377;28;20485;-74
2022/08/29 04:06:08;;;;;;;20.10;6.72;;;;;;;11.56;89.73;101983.84;5049138;28;20017;-74
2022/08/29 04:08:34;;;;;;;20.35;7.13;;;;;;;11.55;89.66;101988.34;5050749;28;20087;-74
2022/08/29 04:10:59;;;;;;;17.98;7.25;;;;;;;11.54;90.05;101986.63;5045237;28;20033;-74
2022/08/29 04:13:24;;;;;;;23.35;8.40;;;;;;;11.54;90.21;101992.88;5037681;28;20171;-74
2022/08/29 04:15:50;;;;;;;21.38;8.05;;;;;;;11.53;90.54;102003.72;5034643;28;20115;-74
2022/08/29 04:18:16;;;;;;;20.65;7.45;;;;;;;11.53;90.93;102001.03;5050340;28;20037;-74
2022/08/29 04:20:43;;;;;;;22.20;8.65;;;;;;;11.54;90.87;102006.31;5048616;28;20052;-74
2022/08/29 04:23:11;;;;;;;23.13;7.75;;;;;;;11.53;90.67;102007.28;5037540;28;20033;-74
2022/08/29 04:25:38;;;;;;;19.75;6.40;;;;;;;11.53;90.56;102009.97;5048469;28;20024;-74
2022/08/29 04:28:05;;;;;;;18.52;7.05;;;;;;;11.56;90.62;102010.75;5050489;28;20082;-74
2022/08/29 04:30:31;;;;;;;20.35;8.40;;;;;;;11.56;90.72;102014.31;5049262;28;20024;-74
2022/08/29 04:32:57;;;;;;;20.23;7.15;;;;;;;11.54;90.76;102009.03;5040012;28;20025;-74
2022/08/29 04:35:22;;;;;;;18.90;7.28;;;;;;;11.53;90.69;102015.34;5040336;28;20048;-74
2022/08/29 04:37:48;;;;;;;19.55;7.30;;;;;;;11.51;90.32;102011.91;5046523;28;20496;-74
2022/08/29 04:40:17;;;;;;;17.33;6.80;;;;;;;11.50;90.49;102012.84;5047142;28;20024;-74
2022/08/29 04:42:42;;;;;;;23.42;8.75;;;;;;;11.53;90.61;102015.34;5044078;28;20032;-74
2022/08/29 04:45:13;;;;;;;20.45;8.82;;;;;;;11.51;90.89;102016.41;5039666;28;20477;-74
2022/08/29 04:47:40;;;;;;;21.63;7.55;;;;;;;11.48;90.27;102006.69;5047546;28;20029;-74
2022/08/29 04:50:07;;;;;;;21.33;7.97;;;;;;;11.47;90.87;102014.84;5050442;28;20029;-74
2022/08/29 04:52:32;;;;;;;21.02;7.55;;;;;;;11.47;90.58;102022.94;5040306;28;20033;-74
2022/08/29 04:54:58;;;;;;;24.02;6.75;;;;;;;11.45;89.61;102014.94;5031795;28;20033;-74
2022/08/29 04:57:23;;;;;;;20.40;7.40;;;;;;;11.44;90.06;102023.97;5042131;28;20513;-74
2022/08/29 04:59:53;;;;;;;20.48;7.20;;;;;;;11.41;90.14;102029.53;5046848;28;20090;-74
2022/08/29 05:02:19;;;;;;;19.70;7.40;;;;;;;11.41;90.64;102032.22;5047469;28;20024;-74
2022/08/29 05:04:46;;;;;;;21.75;7.03;;;;;;;11.39;90.32;102023.38;5040070;28;20104;-74
2022/08/29 05:07:11;;;;;;;23.75;7.70;;;;;;;11.36;90.71;102027.13;5033013;28;20457;-74
2022/08/29 05:09:38;;;;;;;20.67;7.25;;;;;;;11.37;91.16;102017.22;5037550;28;20068;-74
2022/08/29 05:12:04;;;;;;;21.63;7.50;;;;;;;11.39;91.38;102018.00;5038776;28;20491;-74
2022/08/29 05:14:29;;;;;;;18.42;6.32;;;;;;;11.43;91.21;102030.31;5043237;28;20029;-74
2022/08/29 05:16:55;;;;;;;16.17;6.00;;;;;;;11.43;91.25;102024.91;5033020;28;20112;-74
2022/08/29 05:19:20;;;;;;;18.25;7.00;;;;;;;11.45;90.92;102028.41;5049235;28;20029;-74
2022/08/29 05:21:46;;;;;;;19.08;6.45;;;;;;;11.47;91.26;102031.88;5049238;28;20109;-74
2022/08/29 05:24:12;;;;;;;22.45;6.72;;;;;;;11.48;91.68;102036.31;5048265;28;20044;-74
2022/08/29 05:26:41;;;;;;;19.17;6.40;;;;;;;11.53;92.08;102036.03;5048099;28;20021;-74
2022/08/29 05:29:09;;;;;;;;;;;;;;;11.62;89.79;102045.41;5035129;28;20033;-74
2022/08/29 05:31:35;;;;;;;16.48;5.40;;;;;;;11.60;91.73;102042.78;5043521;28;19967;-74
2022/08/29 05:34:01;;;;;;;16.95;6.20;;;;;;;11.64;92.17;102048.84;5048267;28;20033;-74
2022/08/29 05:36:27;;;;;;;20.92;6.95;;;;;;;11.67;92.48;102046.88;5038860;28;20033;-74
2022/08/29 05:38:52;;;;;;;19.48;6.40;;;;;;;11.72;92.75;102046.59;5044831;28;20045;-74
2022/08/29 05:41:18;;;;;;;19.48;6.50;;;;;;;11.79;93.20;102052.50;5041505;28;20032;-74
2022/08/29 05:43:43;;;;;;;18.77;6.38;;;;;;;11.83;93.06;102054.03;5038073;28;20102;-74
2022/08/29 05:46:10;;;;;;;19.50;6.43;;;;;;;11.88;93.63;102050.09;5032239;28;20112;-74
2022/08/29 05:48:39;;;;;;;21.67;6.65;;;;;;;11.92;92.38;102048.09;5042861;28;20032;-74
2022/08/29 05:51:04;;;;;;;21.92;6.85;;;;;;;12.01;93.71;102057.50;5049622;28;20047;-74
2022/08/29 05:53:30;;;;;;;20.77;6.63;;;;;;;12.05;93.59;102048.28;5046328;28;20029;-74
2022/08/29 05:55:55;;;;;;;19.60;6.68;;;;;;;12.11;93.41;102058.69;5039444;28;20091;-74
2022/08/29 05:58:21;;;;;;;17.80;6.22;;;;;;;12.16;92.74;102061.09;5039950;28;20074;-74
2022/08/29 06:00:47;;;;;;;17.98;6.20;;;;;;;12.21;92.46;102059.84;5038010;28;20056;-74
2022/08/29 06:03:13;;;;;;;20.73;6.88;;;;;;;12.27;92.94;102068.50;5039120;28;20068;-74
2022/08/29 06:05:39;;;;;;;19.50;7.25;;;;;;;12.34;93.33;102069.88;5046439;28;20100;-74
2022/08/29 06:08:05;;;;;;;17.38;6.28;;;;;;;12.41;92.67;102079.31;5037559;28;20075;-74
2022/08/29 06:10:30;;;;;;;19.90;6.43;;;;;;;12.46;92.28;102061.06;5040803;28;20473;-74
2022/08/29 06:12:56;;;;;;;18.02;6.43;;;;;;;12.52;93.14;102070.59;5047885;28;20024;-74
2022/08/29 06:15:21;;;;;;;20.77;6.93;;;;;;;12.58;93.21;102065.66;5040434;28;20025;-74
2022/08/29 06:17:47;;;;;;;21.50;6.95;;;;;;;12.66;93.29;102072.41;5043307;28;20131;-74
2022/08/29 06:20:13;;;;;;;17.63;6.50;;;;;;;12.67;92.55;102071.47;5035113;28;20025;-74
2022/08/29 06:22:38;;;;;;;20.85;7.25;;;;;;;12.71;91.78;102083.78;5037309;28;20039;-74
2022/08/29 06:25:05;;;;;;;17.80;5.65;;;;;;;12.74;91.26;102080.91;5038848;28;20556;-74
2022/08/29 06:27:30;;;;;;;17.50;5.75;;;;;;;12.78;91.26;102074.31;5041854;28;20033;-74
2022/08/29 06:29:55;;;;;;;19.80;6.45;;;;;;;12.84;92.42;102076.66;5042145;28;20033;-74
2022/08/29 06:32:21;;;;;;;16.73;5.93;;;;;;;12.89;91.37;102076.34;5042914;28;20518;-74
2022/08/29 06:34:46;;;;;;;24.42;7.25;;;;;;;12.92;90.84;102078.84;5039808;28;20372;-74
2022/08/29 06:37:12;;;;;;;20.52;6.25;;;;;;;12.96;90.92;102084.91;5039988;28;20028;-74
2022/08/29 06:39:38;;;;;;;17.50;6.40;;;;;;;13.01;90.42;102080.97;5037950;28;20389;-74
2022/08/29 06:42:03;;;;;;;21.83;7.43;;;;;;;13.08;90.95;102084.16;5044302;28;20507;-74
2022/08/29 06:44:30;;;;;;;20.90;7.85;;;;;;;13.16;91.02;102092.59;5043991;28;20054;-74
2022/08/29 06:46:56;;;;;;;21.63;7.78;;;;;;;13.23;90.59;102084.97;5042491;28;20145;-75
2022/08/29 06:49:22;;;;;;;19.77;7.45;;;;;;;13.31;89.83;102097.97;5045756;28;20432;-74
2022/08/29 06:51:49;;;;;;;21.33;7.10;;;;;;;13.37;89.88;102100.34;5049379;28;20028;-75
2022/08/29 06:54:15;;;;;;;19.38;7.15;;;;;;;13.42;88.83;102100.88;5062231;28;20020;-75
2022/08/29 06:56:41;;;;;;;20.42;7.18;;;;;;;13.49;88.09;102094.13;5043641;28;20021;-74
2022/08/29 06:59:07;;;;;;;20.73;7.35;;;;;;;13.56;87.42;102086.50;5049682;28;20036;-74
2022/08/29 07:01:33;;;;;;;22.58;7.20;;;;;;;13.62;87.67;102084.22;5051766;28;20118;-74
2022/08/29 07:03:59;;;;;;;20.27;6.95;;;;;;;13.73;88.38;102088.03;5052427;28;20033;-74
2022/08/29 07:06:25;;;;;;;25.20;7.30;;;;;;;13.83;87.38;102085.59;5049492;28;20040;-74
2022/08/29 07:08:51;;;;;;;21.13;7.35;;;;;;;13.95;88.12;102088.34;5052787;28;20036;-74
2022/08/29 07:11:17;;;;;;;19.33;7.00;;;;;;;14.09;86.88;102089.25;5052851;28;20090;-74
2022/08/29 07:13:42;;;;;;;22.00;7.90;;;;;;;14.22;86.59;102089.28;5049940;28;20028;-74
2022/08/29 07:16:13;;;;;;;20.27;7.50;;;;;;;14.36;87.34;102081.03;5049904;28;20091;-74
2022/08/29 07:18:39;;;;;;;22.15;7.35;;;;;;;14.48;86.28;102080.19;5052304;28;20433;-74
2022/08/29 07:21:09;;;;;;;19.88;6.90;;;;;;;14.59;82.98;102084.00;5050616;28;20090;-74
2022/08/29 07:23:34;;;;;;;19.00;6.10;;;;;;;14.72;82.59;102084.03;5047405;28;20101;-74
2022/08/29 07:26:28;;;;;;;21.50;7.15;;;;;;;14.83;82.50;102081.38;5052255;28;20021;-74
2022/08/29 07:28:55;;;;;;;19.08;6.10;;;;;;;14.95;79.73;102083.22;5048933;28;20041;-74
2022/08/29 07:31:21;;;;;;;18.10;5.80;;;;;;;15.05;78.63;102078.00;5050439;28;20037;-74
2022/08/29 07:33:47;;;;;;;21.70;5.38;;;;;;;15.13;75.78;102080.16;5049340;28;20039;-74
2022/08/29 07:36:12;;;;;;;18.35;4.88;;;;;;;15.24;74.99;102082.94;5044902;28;20079;-74
2022/08/29 07:38:38;;;;;;;14.85;4.68;;;;;;;15.26;74.48;102081.00;5047980;28;20025;-74
2022/08/29 07:41:06;;;;;;;12.48;4.25;;;;;;;15.32;74.94;102064.28;5050270;28;20060;-74
2022/08/29 07:43:32;;;;;;;18.13;5.53;;;;;;;15.40;73.94;102060.13;5045286;28;20029;-74
2022/08/29 07:45:58;;;;;;;17.50;4.93;;;;;;;15.46;75.57;102059.66;5043273;28;20029;-74
2022/08/29 07:48:24;;;;;;;16.17;4.22;;;;;;;15.50;73.57;102067.44;5040068;28;20025;-75
2022/08/29 07:50:50;;;;;;;12.63;3.67;;;;;;;15.56;74.48;102079.69;5041464;28;20083;-75
2022/08/29 07:53:16;;;;;;;16.85;5.55;;;;;;;15.64;74.34;102082.69;5041707;28;20384;-75
2022/08/29 07:55:42;;;;;;;17.25;4.85;;;;;;;15.73;73.18;102089.25;5042962;28;20064;-74
2022/08/29 07:58:08;;;;;;;15.85;4.82;;;;;;;15.80;70.89;102085.13;5044189;28;20079;-74
2022/08/29 08:00:33;;;;;;;18.00;5.32;;;;;;;15.87;70.92;102078.28;5045423;28;20131;-74
2022/08/29 08:02:59;;;;;;;14.48;4.40;;;;;;;15.96;71.82;102090.25;5039756;28;20060;-75
2022/08/29 08:05:24;;;;;;;19.83;4.90;;;;;;;16.01;68.83;102081.78;5041308;28;20052;-75
2022/08/29 08:07:49;;;;;;;14.00;4.32;;;;;;;16.07;70.43;102078.56;5044828;28;20136;-75
2022/08/29 08:10:18;;;;;;;17.75;4.32;;;;;;;16.13;69.64;102074.53;5041792;28;20037;-71
2022/08/29 08:12:43;;;;;;;13.95;3.72;;;;;;;16.19;68.77;102085.78;5038453;28;20028;-72
2022/08/29 08:15:09;;;;;;;12.52;3.60;;;;;;;16.25;67.19;102079.00;5036990;28;20493;-72
2022/08/29 08:17:34;;;;;;;14.73;3.55;;;;;;;16.34;69.01;102078.28;5042146;28;20037;-72
2022/08/29 08:20:01;;;;;;;15.80;4.18;;;;;;;16.39;70.34;102076.06;5040183;28;20112;-72
2022/08/29 08:22:26;;;;;;;15.35;4.65;;;;;;;16.47;67.72;102083.63;5038901;28;20078;-72
2022/08/29 08:24:51;;;;;;;17.92;5.07;;;;;;;16.54;67.76;102075.84;5045065;28;20755;-71
2022/08/29 08:27:17;;;;;;;17.58;5.20;;;;;;;16.60;68.10;102073.53;5042661;28;20028;-70
2022/08/29 08:29:43;;;;;;;11.68;3.85;;;;;;;16.65;68.57;102075.88;5040991;28;20025;-70
2022/08/29 08:32:08;;;;;;;12.77;3.78;;;;;;;16.72;68.39;102076.22;5038223;28;20052;-70
2022/08/29 08:34:34;;;;;;;13.65;4.15;;;;;;;16.75;66.73;102087.72;5041482;28;20599;-70
2022/08/29 08:36:59;;;;;;;15.88;4.25;;;;;;;16.79;66.62;102088.31;5047959;28;20382;-74
2022/08/29 08:39:24;;;;;;;12.63;3.92;;;;;;;16.85;67.24;102084.25;5036567;28;20032;-74
2022/08/29 08:42:04;;;;;;;16.75;4.50;;;;;;;16.87;67.32;102079.59;5045736;28;20060;-74
2022/08/29 08:44:40;;;;;;;14.45;4.05;;;;;;;16.90;67.18;102074.78;5034289;28;20037;-74
2022/08/29 08:47:09;;;;;;;16.23;4.20;;;;;;;16.94;66.84;102075.38;5039595;28;20029;-74
2022/08/29 08:49:57;;;;;;;18.63;4.80;;;;;;;17.01;68.61;102070.34;5041334;28;20029;-74
2022/08/29 08:52:46;;;;;;;14.45;4.20;;;;;;;17.07;68.63;102076.16;5041138;28;20040;-74
2022/08/29 08:55:24;;;;;;;15.27;4.25;;;;;;;17.13;67.40;102080.22;5041685;28;20152;-73
2022/08/29 08:58:04;;;;;;;18.65;5.05;;;;;;;17.16;66.69;102079.97;5041839;28;20542;-72
2022/08/29 09:00:40;;;;;;;17.10;4.47;;;;;;;17.21;66.48;102090.44;5059574;28;20117;-72
2022/08/29 09:03:36;;;;;;;17.27;5.00;;;;;;;17.23;64.74;102083.03;5040110;28;20051;-72
2022/08/29 09:06:25;;;;;;;15.70;4.15;;;;;;;17.29;66.64;102085.22;5031220;28;20032;-72
2022/08/29 09:09:02;;;;;;;16.92;4.85;;;;;;;17.34;66.17;102087.59;5044161;28;20211;-72
2022/08/29 09:11:35;;;;;;;15.32;4.50;;;;;;;17.37;65.83;102093.63;5046565;28;20075;-72
2022/08/29 09:14:32;;;;;;;17.70;4.88;;;;;;;17.41;65.12;102086.06;5045431;28;20036;-72
2022/08/29 09:16:59;;;;;;;13.55;3.97;;;;;;;17.44;63.17;102092.13;5038843;28;20030;-68
2022/08/29 09:19:25;;;;;;;16.00;4.32;;;;;;;17.45;61.92;102090.25;5035854;28;20049;-68
2022/08/29 09:21:54;;;;;;;15.98;4.72;;;;;;;17.44;60.98;102099.44;5036030;28;20032;-68
2022/08/29 09:24:27;;;;;;;15.70;4.38;;;;;;;17.49;61.77;102094.47;5038863;28;20032;-68
2022/08/29 09:26:52;;;;;;;21.08;4.57;;;;;;;17.50;60.82;102095.31;5038054;28;20028;-68
2022/08/29 09:29:19;;;;;;;15.10;4.75;;;;;;;17.55;62.27;102093.09;5035366;28;20123;-68
2022/08/29 09:32:04;;;;;;;15.77;4.93;;;;;;;17.59;65.27;102098.13;5035884;28;20056;-68
2022/08/29 09:34:39;;;;;;;18.20;5.40;;;;;;;17.62;65.80;102097.88;5038489;28;20143;-68
2022/08/29 09:37:26;;;;;;;16.50;4.15;;;;;;;17.65;66.75;102100.34;5042542;28;20056;-68
2022/08/29 09:39:59;;;;;;;18.02;4.95;;;;;;;17.63;63.73;102093.31;5034583;28;20025;-68
2022/08/29 09:42:32;;;;;;;16.13;5.75;;;;;;;17.63;64.22;102096.03;5037238;28;20020;-68
2022/08/29 09:45:15;;;;;;;15.65;4.70;;;;;;;17.63;64.05;102090.59;5040680;28;20060;-68
2022/08/29 09:47:40;;;;;;;20.45;5.25;;;;;;;17.61;65.12;102081.69;5038062;28;20111;-68
2022/08/29 09:50:25;;;;;;;19.10;4.72;;;;;;;17.62;66.02;102094.31;5041385;28;20033;-68
2022/08/29 09:53:02;;;;;;;17.27;4.50;;;;;;;17.59;62.68;102089.13;5041848;28;20029;-68
2022/08/29 09:55:29;;;;;;;13.63;3.72;;;;;;;17.61;61.34;102095.28;5041502;28;20029;-68
2022/08/29 09:58:04;;;;;;;17.88;4.50;;;;;;;17.68;62.42;102088.34;5038529;28;20029;-68
2022/08/29 10:00:35;;;;;;;15.88;4.07;;;;;;;17.71;60.59;102085.38;5039278;28;20037;-68
2022/08/29 10:03:04;;;;;;;13.07;4.05;;;;;;;17.73;60.78;102079.78;5034267;28;20025;-68
2022/08/29 10:05:43;;;;;;;17.15;5.45;;;;;;;17.73;63.32;102071.63;5036789;28;20033;-68
2022/08/29 10:08:35;;;;;;;17.83;4.88;;;;;;;17.72;64.48;102081.66;5046309;28;20108;-68
2022/08/29 10:11:04;;;;;;;22.42;5.22;;;;;;;17.70;64.13;102086.38;5044249;28;20064;-68
2022/08/29 10:13:53;;;;;;;20.35;5.18;;;;;;;17.74;63.05;102089.69;5041218;28;20052;-68
2022/08/29 10:16:40;;;;;;;15.82;4.97;;;;;;;17.80;62.12;102090.06;5036014;28;20037;-68
2022/08/29 10:19:22;;;;;;;18.08;5.53;;;;;;;17.88;62.77;102086.66;5041521;28;20426;-68
2022/08/29 10:21:50;;;;;;;16.45;4.45;;;;;;;17.89;60.12;102091.13;5039154;28;20040;-68
2022/08/29 10:24:24;;;;;;;15.23;4.93;;;;;;;17.89;59.84;102101.13;5037273;28;20522;-68
2022/08/29 10:27:03;;;;;;;16.10;4.95;;;;;;;17.87;59.94;102090.38;5039549;28;20477;-68
2022/08/29 10:29:35;;;;;;;15.93;4.90;;;;;;;17.94;60.50;102079.88;5047433;28;20059;-68
2022/08/29 10:32:12;;;;;;;17.35;4.95;;;;;;;18.05;61.10;102076.22;5045778;28;20087;-68
2022/08/29 10:34:58;;;;;;;14.80;4.35;;;;;;;18.15;60.63;102072.56;5046352;28;20049;-68
2022/08/29 10:37:47;;;;;;;19.92;4.85;;;;;;;18.30;61.77;102072.25;5049524;28;20028;-68
2022/08/29 10:40:23;;;;;;;15.88;4.93;;;;;;;18.33;58.91;102077.41;5039330;28;20493;-68
2022/08/29 10:42:55;;;;;;;18.58;5.03;;;;;;;18.39;58.35;102068.75;5042061;28;20165;-68
2022/08/29 10:45:34;;;;;;;21.33;5.82;;;;;;;18.45;58.82;102070.94;5043387;28;20116;-68
2022/08/29 10:48:20;;;;;;;15.48;4.90;;;;;;;18.47;58.91;102066.19;5037935;28;20032;-68
2022/08/29 10:50:52;;;;;;;16.45;5.28;;;;;;;18.51;58.37;102069.53;5045884;28;20365;-68
2022/08/29 10:53:30;;;;;;;14.45;4.75;;;;;;;18.57;60.35;102060.81;5039950;28;20035;-68
2022/08/29 10:56:03;;;;;;;17.80;5.43;;;;;;;18.62;61.45;102061.25;5045191;28;20033;-68
2022/08/29 10:58:50;;;;;;;17.65;5.88;;;;;;;18.70;58.49;102055.16;5044805;28;20037;-68
2022/08/29 11:01:27;;;;;;;15.50;4.93;;;;;;;18.79;59.12;102048.88;5040450;28;20037;-68
2022/08/29 11:04:18;;;;;;;18.30;5.25;;;;;;;18.87;59.60;102042.75;5053371;28;20025;-68
2022/08/29 11:06:55;;;;;;;18.55;5.38;;;;;;;18.92;60.23;102047.78;5050052;28;20104;-68
2022/08/29 11:09:44;;;;;;;16.63;5.07;;;;;;;18.92;59.97;102036.91;5040912;28;20431;-68
2022/08/29 11:12:27;;;;;;;18.85;4.93;;;;;;;18.94;57.66;102043.94;5043029;28;20041;-68
2022/08/29 11:15:04;;;;;;;18.40;5.30;;;;;;;18.98;58.73;102039.09;5049849;28;20032;-68
2022/08/29 11:17:35;;;;;;;18.67;4.60;;;;;;;19.04;59.24;102038.53;5046106;28;20807;-68
2022/08/29 11:20:19;;;;;;;14.30;4.85;;;;;;;19.06;58.56;102039.22;5042858;28;20468;-68
2022/08/29 11:22:47;;;;;;;19.45;5.28;;;;;;;19.10;56.60;102035.25;5047816;28;20033;-68
2022/08/29 11:25:16;;;;;;;16.73;5.30;;;;;;;19.16;59.23;102028.38;5050926;28;20029;-68